Time;durP1;ratioP1;P1;durP2;ratioP2;P2;SDS_P1;SDS_P2;PMS_P1;PMS_P2;Temp;Humidity;BMP_temperature;BMP_pressure;BME280_temperature;BME280_humidity;BME280_pressure;Samples;Min_cycle;Max_cycle;Signal;HPM_P1;HPM_P2
2022/09/08 00:04:17;;;;;;;;;;;18.40;99.90;;;17.81;100.00;95177.72;10489265;28;2071;-73
2022/09/08 00:09:19;;;;;;;;;;;18.50;99.90;;;17.96;100.00;95173.59;10483171;28;2328;-72
2022/09/08 00:14:22;;;;;;;;;;;18.60;99.90;;;18.04;100.00;95166.47;10469656;28;2405;-73
2022/09/08 00:19:26;;;;;;;;;;;18.70;99.90;;;18.12;100.00;95164.78;10489975;28;2365;-72
2022/09/08 00:24:29;;;;;;;;;;;18.80;99.90;;;17.98;100.00;95175.97;10483250;28;2405;-78
2022/09/08 00:29:31;;;;;;;;;;;18.80;99.90;;;17.90;100.00;95191.22;10485096;28;2043;-77
2022/09/08 00:34:35;;;;;;;;;;;18.70;99.90;;;17.96;100.00;95198.06;10485618;28;2369;-78
2022/09/08 00:39:37;;;;;;;;;;;18.90;99.90;;;17.91;100.00;95192.81;10473138;28;2367;-77
2022/09/08 00:44:48;;;;;;;;;;;18.80;99.90;;;18.09;100.00;95202.41;10482767;28;2383;-75
2022/09/08 00:49:51;;;;;;;;;;;18.80;99.90;;;18.03;100.00;95198.31;10488672;28;2298;-76
2022/09/08 00:54:53;;;;;;;;;;;19.00;99.90;;;17.95;100.00;95182.88;10483675;28;2354;-74
2022/09/08 00:59:56;;;;;;;;;;;18.70;99.90;;;17.96;100.00;95199.97;10477653;28;2033;-76
2022/09/08 01:04:59;;;;;;;;;;;18.80;99.90;;;17.91;100.00;95171.06;10461577;28;2304;-76
2022/09/08 01:15:23;;;;;;;;;;;18.60;99.90;;;17.82;100.00;95201.06;10482104;28;2367;-76
2022/09/08 01:20:27;;;;;;;;;;;18.50;99.90;;;17.54;100.00;95161.94;10466865;28;2035;-75
2022/09/08 01:25:30;;;;;;;;;;;18.50;99.90;;;17.31;100.00;95153.34;10482442;28;2055;-76
2022/09/08 01:30:32;;;;;;;;;;;18.30;99.90;;;17.11;100.00;95182.03;10484474;28;2326;-75
2022/09/08 01:35:35;;;;;;;;;;;18.10;99.90;;;17.01;100.00;95171.59;10482315;28;2377;-76
2022/09/08 01:40:38;;;;;;;;;;;17.90;99.90;;;16.95;100.00;95200.03;10479282;28;2392;-76
2022/09/08 01:45:41;;;;;;;;;;;17.70;99.90;;;16.87;100.00;95207.13;10482623;28;2419;-76
2022/09/08 01:50:44;;;;;;;;;;;17.70;99.90;;;16.79;100.00;95207.94;10478343;28;2291;-76
2022/09/08 01:55:46;;;;;;;;;;;17.70;99.90;;;16.84;100.00;95210.47;10469688;28;2435;-76
2022/09/08 02:00:49;;;;;;;;;;;17.70;99.90;;;17.00;100.00;95214.22;10484223;28;2297;-78
2022/09/08 02:05:52;;;;;;;;;;;17.80;99.90;;;16.97;100.00;95208.66;10481509;28;2328;-79
2022/09/08 02:10:55;;;;;;;;;;;17.70;99.90;;;17.06;100.00;95203.97;10485800;28;2360;-77
2022/09/08 02:15:58;;;;;;;;;;;17.80;99.90;;;17.13;100.00;95198.81;10481814;28;2393;-76
2022/09/08 02:21:01;;;;;;;;;;;17.90;99.90;;;16.96;100.00;95190.78;10483548;28;2304;-76
2022/09/08 02:26:06;;;;;;;;;;;17.90;99.90;;;17.02;100.00;95194.91;10482406;28;2026;-76
2022/09/08 02:31:09;;;;;;;;;;;17.80;99.90;;;17.03;100.00;95200.00;10481409;28;2266;-76
2022/09/08 02:36:12;;;;;;;;;;;17.80;99.90;;;16.96;100.00;95196.19;10485537;28;2370;-79
2022/09/08 02:41:15;;;;;;;;;;;17.80;99.90;;;16.79;100.00;95191.66;10486887;28;2381;-78
2022/09/08 02:46:18;;;;;;;;;;;;;;;16.84;100.00;95193.41;10484556;28;2269;-76
2022/09/08 02:51:21;;;;;;;;;;;17.40;99.90;;;16.93;100.00;95180.59;10491820;28;2330;-78
2022/09/08 02:56:24;;;;;;;;;;;17.60;99.90;;;16.87;100.00;95162.91;10491236;28;2267;-77
2022/09/08 03:01:28;;;;;;;;;;;17.70;99.90;;;16.90;100.00;95154.09;10509293;28;2318;-76
2022/09/08 03:06:31;;;;;;;;;;;17.70;99.90;;;16.96;100.00;95150.06;10494226;28;1983;-76
2022/09/08 03:11:33;;;;;;;;;;;17.70;99.90;;;16.92;100.00;95151.81;10488546;28;2286;-78
2022/09/08 03:16:36;;;;;;;;;;;17.80;99.90;;;16.89;100.00;95147.06;10494846;28;2314;-77
2022/09/08 03:21:39;;;;;;;;;;;17.80;99.90;;;16.83;100.00;95142.94;10488597;28;2353;-76
2022/09/08 03:26:42;;;;;;;;;;;17.60;99.90;;;16.81;100.00;95134.34;10486533;28;2300;-76
2022/09/08 03:31:45;;;;;;;;;;;17.70;99.90;;;16.85;100.00;95113.53;10488138;28;2650;-80
2022/09/08 03:36:48;;;;;;;;;;;17.70;99.90;;;16.89;100.00;95109.06;10491620;28;2346;-77
2022/09/08 03:41:50;;;;;;;;;;;17.80;99.90;;;17.03;100.00;95098.72;10488661;28;2301;-78
2022/09/08 03:46:53;;;;;;;;;;;17.80;99.90;;;17.03;100.00;95112.31;10471957;28;2353;-78
2022/09/08 03:51:56;;;;;;;;;;;17.80;99.90;;;17.14;100.00;95102.66;10487123;28;2388;-76
2022/09/08 03:57:00;;;;;;;;;;;17.90;99.90;;;17.21;100.00;95086.63;10487893;28;2334;-76
2022/09/08 04:02:04;;;;;;;;;;;17.90;99.90;;;17.13;100.00;95076.63;10486818;28;2030;-76
2022/09/08 04:07:07;;;;;;;;;;;17.90;99.90;;;17.16;100.00;95089.53;10484381;28;2388;-77
2022/09/08 04:12:10;;;;;;;;;;;17.90;99.90;;;17.13;100.00;95095.63;10488093;28;2034;-77
2022/09/08 04:17:13;;;;;;;;;;;17.90;99.90;;;17.19;100.00;95107.09;10483616;28;2059;-78
2022/09/08 04:22:16;;;;;;;;;;;18.00;99.90;;;17.12;100.00;95104.13;10489310;28;2290;-75
2022/09/08 04:27:21;;;;;;;;;;;;;;;17.08;100.00;95111.31;10476964;28;2484;-76
2022/09/08 04:32:25;;;;;;;;;;;17.20;99.90;;;17.01;100.00;95122.72;10486200;28;2501;-76
2022/09/08 04:37:28;;;;;;;;;;;17.90;99.90;;;16.74;100.00;95138.38;10482026;28;2054;-76
2022/09/08 04:42:30;;;;;;;;;;;17.70;99.90;;;16.80;100.00;95143.63;10478966;28;2364;-79
2022/09/08 04:47:33;;;;;;;;;;;17.60;99.90;;;16.59;100.00;95138.88;10479494;28;2474;-77
2022/09/08 04:52:36;;;;;;;;;;;17.40;99.90;;;16.84;100.00;95149.97;10482976;28;2356;-77
2022/09/08 04:57:39;;;;;;;;;;;17.60;99.90;;;16.69;100.00;95162.16;10481161;28;2260;-77
2022/09/08 05:02:45;;;;;;;;;;;17.50;99.90;;;16.76;100.00;95178.75;10477009;28;2328;-78
2022/09/08 05:07:48;;;;;;;;;;;17.50;99.90;;;16.80;100.00;95181.63;10479140;28;2407;-77
2022/09/08 05:12:50;;;;;;;;;;;17.50;99.90;;;16.77;100.00;95182.25;10486454;28;2289;-77
2022/09/08 05:17:54;;;;;;;;;;;17.50;99.90;;;16.72;100.00;95186.72;10480542;28;2297;-76
2022/09/08 05:22:57;;;;;;;;;;;17.60;99.90;;;16.79;100.00;95199.00;10481330;28;2324;-74
2022/09/08 05:27:59;;;;;;;;;;;17.50;99.90;;;16.96;100.00;95198.91;10484336;28;2297;-73
2022/09/08 05:33:02;;;;;;;;;;;17.70;99.90;;;17.09;100.00;95200.59;10483724;28;1983;-77
2022/09/08 05:38:05;;;;;;;;;;;17.80;99.90;;;17.04;100.00;95206.22;10476226;28;2374;-76
2022/09/08 05:43:08;;;;;;;;;;;17.80;99.90;;;17.13;100.00;95208.91;10481447;28;2034;-73
2022/09/08 05:48:11;;;;;;;;;;;17.80;99.90;;;16.81;100.00;95204.91;10485749;28;2326;-67
2022/09/08 05:53:13;;;;;;;;;;;17.80;99.90;;;16.82;100.00;95201.06;10481078;28;2301;-69
2022/09/08 05:58:22;;;;;;;;;;;17.70;99.90;;;16.78;100.00;95205.56;10485007;28;2309;-68
2022/09/08 06:03:25;;;;;;;;;;;17.60;99.90;;;16.79;100.00;95209.84;10483829;28;2337;-72
2022/09/08 06:08:28;;;;;;;;;;;17.60;99.90;;;16.64;100.00;95200.31;10486899;28;2305;-67
2022/09/08 06:13:31;;;;;;;;;;;17.60;99.90;;;16.70;100.00;95202.56;10484817;28;2082;-68
2022/09/08 06:18:34;;;;;;;;;;;17.50;99.90;;;16.89;100.00;95218.44;10488349;28;2345;-69
2022/09/08 06:23:38;;;;;;;;;;;17.60;99.90;;;16.97;100.00;95220.31;10483713;28;2332;-71
2022/09/08 06:28:41;;;;;;;;;;;;;;;17.08;100.00;95231.59;10496249;28;2364;-69
2022/09/08 06:33:44;;;;;;;;;;;17.60;99.90;;;17.09;100.00;95222.31;10492979;28;2347;-69
2022/09/08 06:38:47;;;;;;;;;;;17.90;99.90;;;17.14;100.00;95224.84;10469829;28;2385;-69
2022/09/08 06:43:54;;;;;;;;;;;17.80;99.90;;;17.14;100.00;95240.34;10469623;28;2512;-68
2022/09/08 06:48:56;;;;;;;;;;;17.80;99.90;;;17.10;100.00;95234.78;10491886;28;2316;-69
2022/09/08 06:53:59;;;;;;;;;;;18.00;99.90;;;17.11;100.00;95247.22;10489278;28;2263;-69
2022/09/08 06:59:02;;;;;;;;;;;17.80;99.90;;;16.92;100.00;95250.38;10490152;28;2337;-68
2022/09/08 07:04:05;;;;;;;;;;;17.80;99.90;;;16.67;100.00;95270.25;10488998;28;2364;-68
2022/09/08 07:09:07;;;;;;;;;;;17.70;99.90;;;16.31;100.00;95278.78;10488886;28;2281;-68
2022/09/08 07:14:10;;;;;;;;;;;17.30;99.90;;;16.08;100.00;95291.72;10490625;28;2379;-69
2022/09/08 07:19:13;;;;;;;;;;;17.10;99.90;;;15.89;100.00;95294.75;10492629;28;2470;-73
2022/09/08 07:24:33;;;;;;;;;;;16.90;99.90;;;15.64;100.00;95315.28;10489757;28;2335;-68
2022/09/08 07:29:36;;;;;;;;;;;16.60;99.90;;;15.47;100.00;95320.66;10485931;28;2377;-70
2022/09/08 07:34:39;;;;;;;;;;;16.50;99.90;;;15.33;100.00;95320.75;10486644;28;2284;-72
2022/09/08 07:39:42;;;;;;;;;;;16.30;99.90;;;15.21;100.00;95328.72;10486666;28;2332;-71
2022/09/08 07:44:46;;;;;;;;;;;16.10;99.90;;;15.09;100.00;95327.38;10486329;28;2369;-70
2022/09/08 07:49:49;;;;;;;;;;;16.00;99.90;;;15.02;100.00;95328.97;10489542;28;2170;-70
2022/09/08 07:54:52;;;;;;;;;;;15.90;99.90;;;14.90;100.00;95328.75;10485551;28;2363;-69
2022/09/08 07:59:55;;;;;;;;;;;15.70;99.90;;;14.96;100.00;95328.28;10484877;28;2360;-70
2022/09/08 08:04:58;;;;;;;;;;;15.80;99.90;;;14.92;100.00;95330.00;10490591;28;2007;-71
2022/09/08 08:10:01;;;;;;;;;;;15.70;99.90;;;15.05;100.00;95328.31;10486867;28;2285;-71
2022/09/08 08:15:04;;;;;;;;;;;15.80;99.90;;;15.26;100.00;95321.22;10486277;28;2059;-70
2022/09/08 08:20:11;;;;;;;;;;;15.90;99.90;;;15.41;100.00;95315.38;10489333;28;2340;-69
2022/09/08 08:25:14;;;;;;;;;;;16.10;99.90;;;15.73;100.00;95320.72;10483506;28;2051;-73
2022/09/08 08:30:17;;;;;;;;;;;16.30;99.90;;;15.85;100.00;95315.47;10485137;28;2091;-69
2022/09/08 08:35:20;;;;;;;;;;;16.50;99.90;;;16.47;100.00;95320.53;10466839;28;2328;-71
2022/09/08 08:40:28;;;;;;;;;;;16.80;99.90;;;16.69;100.00;95325.78;10470164;28;2082;-72
2022/09/08 08:45:31;;;;;;;;;;;17.20;99.90;;;16.71;100.00;95333.63;10480030;28;2015;-69
2022/09/08 08:50:34;;;;;;;;;;;17.30;99.90;;;16.63;100.00;95335.19;10489892;28;2389;-70
2022/09/08 08:55:38;;;;;;;;;;;17.40;99.90;;;16.55;100.00;95333.31;10481444;28;2458;-69
2022/09/08 09:00:40;;;;;;;;;;;17.40;99.90;;;16.75;100.00;95337.28;10484937;28;2379;-71
2022/09/08 09:05:43;;;;;;;;;;;17.40;99.90;;;16.99;100.00;95331.31;10488251;28;2054;-70
2022/09/08 09:10:46;;;;;;;;;;;17.60;99.90;;;17.42;100.00;95338.47;10487963;28;2361;-71
2022/09/08 09:15:49;;;;;;;;;;;17.90;99.90;;;17.83;100.00;95327.72;10485514;28;2301;-69
2022/09/08 09:21:10;;;;;;;;;;;18.10;99.90;;;18.18;100.00;95332.88;10486527;28;2337;-69
2022/09/08 09:26:12;;;;;;;;;;;18.60;99.90;;;18.82;100.00;95312.63;10488878;28;2023;-70
2022/09/08 09:31:15;;;;;;;;;;;19.00;99.90;;;19.16;100.00;95311.44;10492932;28;2239;-68
2022/09/08 09:36:18;;;;;;;;;;;19.40;99.90;;;19.60;100.00;95301.59;10484918;28;2312;-69
2022/09/08 09:41:25;;;;;;;;;;;19.90;99.90;;;19.93;100.00;95300.63;10483724;28;2274;-70
2022/09/08 09:46:28;;;;;;;;;;;20.30;99.90;;;19.45;100.00;95303.03;10484539;28;2306;-70
2022/09/08 09:51:39;;;;;;;;;;;20.40;99.90;;;19.08;100.00;95321.28;10486556;28;2290;-70
2022/09/08 09:56:42;;;;;;;;;;;20.00;99.90;;;19.30;100.00;95308.38;10485961;28;2343;-75
2022/09/08 10:01:45;;;;;;;;;;;19.90;99.90;;;19.41;100.00;95315.78;10497613;28;2321;-76
2022/09/08 10:06:48;;;;;;;;;;;20.00;99.90;;;19.30;100.00;95332.91;10496962;28;2291;-73
2022/09/08 10:12:12;;;;;;;;;;;19.90;99.90;;;19.22;100.00;95323.72;10491288;28;2402;-72
2022/09/08 10:17:16;;;;;;;;;;;19.80;99.90;;;19.32;100.00;95328.69;10495650;28;2317;-68
2022/09/08 10:22:19;;;;;;;;;;;19.80;99.90;;;19.63;98.83;95317.25;10498268;28;2308;-73
2022/09/08 10:27:22;;;;;;;;;;;20.10;99.90;;;20.19;96.79;95316.59;10495387;28;2054;-69
2022/09/08 10:32:25;;;;;;;;;;;20.40;99.90;;;20.62;96.35;95318.63;10489931;28;2446;-70
2022/09/08 10:37:27;;;;;;;;;;;20.80;99.90;;;20.55;94.12;95306.69;10480150;28;2349;-68
2022/09/08 10:42:30;;;;;;;;;;;20.90;99.90;;;20.82;86.26;95303.16;10497304;28;2350;-68
2022/09/08 10:47:33;;;;;;;;;;;21.30;99.90;;;20.31;91.77;95304.84;10495189;28;2330;-69
2022/09/08 10:52:36;;;;;;;;;;;20.90;99.90;;;20.01;92.64;95304.34;10495226;28;2404;-72
2022/09/08 10:57:38;;;;;;;;;;;20.80;99.90;;;19.45;93.42;95294.06;10497471;28;2274;-69
2022/09/08 11:02:41;;;;;;;;;;;20.30;99.90;;;19.40;93.57;95294.28;10493476;28;2432;-68
2022/09/08 11:07:44;;;;;;;;;;;20.20;99.90;;;19.31;89.84;95301.78;10489692;28;2435;-69
2022/09/08 11:12:47;;;;;;;;;;;20.10;99.90;;;19.17;88.20;95310.31;10486196;28;2352;-70
2022/09/08 11:17:50;;;;;;;;;;;19.90;99.90;;;18.87;90.05;95312.41;10489132;28;2348;-69
2022/09/08 11:22:53;;;;;;;;;;;19.60;99.90;;;19.00;87.13;95313.22;10491052;28;1999;-68
2022/09/08 11:27:56;;;;;;;;;;;19.60;99.90;;;19.52;87.42;95312.56;10489575;28;2523;-68
2022/09/08 11:32:58;;;;;;;;;;;19.80;99.90;;;19.88;85.49;95319.94;10473874;28;2488;-68
2022/09/08 11:38:01;;;;;;;;;;;20.20;99.90;;;19.97;82.56;95326.06;10490283;28;2315;-68
2022/09/08 11:43:04;;;;;;;;;;;20.50;99.90;;;19.99;79.02;95331.97;10484958;28;2043;-69
2022/09/08 11:48:07;;;;;;;;;;;20.60;99.90;;;19.68;83.64;95338.84;10484471;28;2332;-67
2022/09/08 11:53:11;;;;;;;;;;;20.40;99.90;;;19.61;82.89;95340.56;10489604;28;2363;-68
2022/09/08 11:58:34;;;;;;;;;;;20.20;99.90;;;19.84;83.42;95344.38;10483614;28;2408;-68
2022/09/08 12:03:38;;;;;;;;;;;20.30;99.90;;;20.55;83.47;95336.72;10485114;28;2361;-67
2022/09/08 12:08:40;;;;;;;;;;;20.60;99.90;;;21.34;78.11;95323.22;10487106;28;2388;-69
2022/09/08 12:13:43;;;;;;;;;;;21.50;99.90;;;21.42;74.15;95324.97;10487914;28;2388;-69
2022/09/08 12:18:46;;;;;;;;;;;21.80;99.90;;;21.90;73.34;95331.97;10491213;28;2273;-69
2022/09/08 12:23:49;;;;;;;;;;;22.00;99.90;;;21.93;75.48;95333.19;10489349;28;2351;-69
2022/09/08 12:28:53;;;;;;;;;;;22.40;99.90;;;22.34;72.88;95329.84;10488273;28;2031;-67
2022/09/08 12:33:56;;;;;;;;;;;22.60;99.90;;;22.37;67.85;95320.88;10487715;28;2072;-68
2022/09/08 12:38:59;;;;;;;;;;;22.80;99.90;;;;;;10487575;28;2317;-67
2022/09/08 12:44:03;;;;;;;;;;;22.70;99.90;;;22.69;64.89;95317.19;10484325;28;2389;-67
2022/09/08 12:49:15;;;;;;;;;;;22.80;99.90;;;22.84;65.34;95314.38;10488247;28;2360;-69
2022/09/08 12:54:24;;;;;;;;;;;23.10;99.90;;;21.91;72.35;95306.19;10486554;28;2083;-68
2022/09/08 12:59:27;;;;;;;;;;;22.80;99.90;;;21.98;72.61;95320.03;10484319;28;2266;-71
2022/09/08 13:04:30;;;;;;;;;;;22.60;99.90;;;22.09;74.08;95309.34;10482013;28;2499;-69
2022/09/08 13:09:33;;;;;;;;;;;22.60;99.90;;;22.78;66.67;95313.09;10472056;28;2324;-68
2022/09/08 13:14:37;;;;;;;;;;;23.00;99.90;;;23.38;65.57;95307.13;10484527;28;2305;-69
2022/09/08 13:19:40;;;;;;;;;;;23.40;99.90;;;22.62;66.64;95304.94;10485312;28;2516;-69
2022/09/08 13:24:43;;;;;;;;;;;23.40;99.90;;;22.76;67.93;95298.94;10482058;28;2320;-71
2022/09/08 13:29:45;;;;;;;;;;;23.30;99.90;;;23.12;64.22;95300.41;10484997;28;2363;-72
2022/09/08 13:35:08;;;;;;;;;;;23.40;99.90;;;23.21;66.74;95308.38;10485510;28;2085;-71
2022/09/08 13:40:11;;;;;;;;;;;23.60;99.90;;;23.26;63.38;95310.03;10466610;28;2402;-68
2022/09/08 13:45:14;;;;;;;;;;;23.70;99.90;;;23.26;59.43;95299.88;10484039;28;2142;-69
2022/09/08 13:50:17;;;;;;;;;;;23.70;99.90;;;22.77;59.41;95295.03;10487349;28;2286;-68
2022/09/08 13:55:20;;;;;;;;;;;23.40;99.90;;;23.00;54.15;95294.31;10481107;28;2370;-69
2022/09/08 14:00:23;;;;;;;;;;;23.50;99.90;;;22.55;56.93;95291.13;10485650;28;2316;-69
2022/09/08 14:05:26;;;;;;;;;;;23.30;99.90;;;22.69;55.28;95290.59;10482430;28;2666;-68
2022/09/08 14:10:31;;;;;;;;;;;23.20;99.90;;;22.48;53.60;95288.25;10483269;28;2297;-68
2022/09/08 14:15:34;;;;;;;;;;;23.10;99.90;;;22.54;54.36;95286.81;10484821;28;2369;-72
2022/09/08 14:20:40;;;;;;;;;;;23.00;99.90;;;22.55;50.67;95288.38;10482317;28;2397;-71
2022/09/08 14:25:43;;;;;;;;;;;23.20;99.90;;;22.45;52.75;95288.16;10482355;28;2102;-73
2022/09/08 14:30:46;;;;;;;;;;;23.10;99.90;;;21.90;53.54;95290.13;10485503;28;2362;-68
2022/09/08 14:35:49;;;;;;;;;;;23.00;99.90;;;22.06;53.63;95291.66;10488087;28;2058;-69
2022/09/08 14:40:55;;;;;;;;;;;;;;;22.04;53.85;95293.19;10481684;28;2356;-68
2022/09/08 14:45:58;;;;;;;;;;;;;;;21.80;54.51;95277.78;10482762;28;2062;-68
2022/09/08 14:51:01;;;;;;;;;;;22.60;99.90;;;21.90;54.00;95288.19;10487404;28;2343;-68
2022/09/08 14:56:04;;;;;;;;;;;22.60;99.90;;;21.93;52.97;95273.78;10488413;28;2320;-68
2022/09/08 15:01:07;;;;;;;;;;;22.70;99.90;;;21.92;51.19;95285.09;10489858;28;2384;-69
2022/09/08 15:06:10;;;;;;;;;;;22.70;99.90;;;22.05;50.28;95272.88;10490586;28;2491;-68
2022/09/08 15:11:13;;;;;;;;;;;22.70;99.90;;;21.95;50.88;95276.97;10489248;28;2335;-68
2022/09/08 15:16:15;;;;;;;;;;;22.70;99.90;;;21.57;52.26;95275.75;10488026;28;2138;-69
2022/09/08 15:21:19;;;;;;;;;;;22.50;99.90;;;21.54;51.35;95276.44;10472477;28;2340;-69
2022/09/08 15:26:22;;;;;;;;;;;22.30;99.90;;;21.54;51.89;95283.84;10487821;28;2318;-69
2022/09/08 15:31:25;;;;;;;;;;;22.30;99.90;;;21.32;52.97;95282.56;10470887;28;2063;-68
2022/09/08 15:36:29;;;;;;;;;;;22.10;99.90;;;21.34;53.93;95284.94;10491055;28;2367;-68
2022/09/08 15:41:32;;;;;;;;;;;22.20;99.90;;;21.48;53.74;95285.28;10477763;28;2384;-74
2022/09/08 15:46:36;;;;;;;;;;;22.10;99.90;;;21.33;55.15;95284.16;10477187;28;2178;-72
2022/09/08 15:51:39;;;;;;;;;;;22.20;99.90;;;21.20;59.36;95275.22;10484433;28;2268;-76
2022/09/08 15:56:43;;;;;;;;;;;22.10;99.90;;;21.09;57.71;95279.63;10478567;28;2039;-73
2022/09/08 16:01:49;;;;;;;;;;;21.90;99.90;;;20.97;55.41;95276.97;10480517;28;2337;-73
2022/09/08 16:06:52;;;;;;;;;;;21.80;99.90;;;20.89;55.81;95281.47;10464615;28;2366;-72
2022/09/08 16:11:57;;;;;;;;;;;21.80;99.90;;;20.72;55.04;95274.41;10494633;28;2407;-73
2022/09/08 16:16:59;;;;;;;;;;;21.60;99.90;;;20.74;58.13;95271.31;10467028;28;2055;-73
2022/09/08 16:22:03;;;;;;;;;;;21.60;99.90;;;20.53;56.42;95271.53;10484872;28;2367;-73
2022/09/08 16:27:07;;;;;;;;;;;21.40;99.90;;;20.40;57.13;95269.97;10482634;28;2365;-71
2022/09/08 16:32:09;;;;;;;;;;;21.40;99.90;;;20.40;59.17;95268.03;10482339;28;2107;-74
2022/09/08 16:37:14;;;;;;;;;;;;;;;20.20;55.31;95263.59;10484646;28;2451;-73
2022/09/08 16:42:17;;;;;;;;;;;21.10;99.90;;;20.24;58.31;95256.31;10487890;28;2329;-72
2022/09/08 16:47:20;;;;;;;;;;;21.10;99.90;;;20.07;57.73;95264.78;10486037;28;2671;-73
2022/09/08 16:52:23;;;;;;;;;;;21.00;99.90;;;19.83;59.53;95255.53;10486601;28;2577;-72
2022/09/08 16:57:26;;;;;;;;;;;20.80;99.90;;;19.77;61.51;95267.81;10483340;28;2578;-74
2022/09/08 17:02:29;;;;;;;;;;;20.70;99.90;;;19.61;61.58;95258.75;10487149;28;2471;-73
2022/09/08 17:07:38;;;;;;;;;;;20.60;99.90;;;19.54;62.11;95269.41;10473133;28;2582;-75
2022/09/08 17:12:41;;;;;;;;;;;20.60;99.90;;;19.30;64.52;95262.84;10486832;28;2724;-74
2022/09/08 17:17:46;;;;;;;;;;;20.40;99.90;;;19.14;65.33;95275.53;10480070;28;2664;-71
2022/09/08 17:22:49;;;;;;;;;;;20.30;99.90;;;19.10;68.83;95280.91;10484392;28;2315;-72
2022/09/08 17:27:54;;;;;;;;;;;20.10;99.90;;;18.82;70.16;95286.19;10485925;28;2510;-69
2022/09/08 17:33:04;;;;;;;;;;;20.00;99.90;;;18.56;72.88;95304.69;10483629;28;2698;-69
2022/09/08 17:38:07;;;;;;;;;;;19.80;99.90;;;18.46;76.98;95299.69;10502387;28;2789;-70
2022/09/08 17:43:11;;;;;;;;;;;;;;;18.48;75.32;95306.38;10485963;28;2601;-70
2022/09/08 17:48:16;;;;;;;;;;;;;;;18.26;76.61;95321.16;10483060;28;2304;-69
2022/09/08 17:53:18;;;;;;;;;;;19.40;99.90;;;18.17;76.57;95320.41;10484628;28;2738;-70
2022/09/08 17:58:22;;;;;;;;;;;19.30;99.90;;;18.08;77.60;95328.66;10481720;28;2652;-69
2022/09/08 18:03:24;;;;;;;;;;;19.20;99.90;;;18.00;76.89;95334.94;10478624;28;2325;-68
2022/09/08 18:08:27;;;;;;;;;;;19.00;99.90;;;17.67;80.29;95337.53;10481557;28;2414;-68
2022/09/08 18:13:31;;;;;;;;;;;18.90;99.90;;;17.50;85.43;95338.44;10475771;28;2667;-70
2022/09/08 18:18:36;;;;;;;;;;;18.70;99.90;;;17.40;84.05;95340.72;10486686;28;2632;-69
2022/09/08 18:23:41;;;;;;;;;;;18.60;99.90;;;17.46;86.71;95351.06;10492177;28;2573;-70
2022/09/08 18:28:44;;;;;;;;;;;18.50;99.90;;;17.24;85.76;95354.88;10493656;28;2581;-69
2022/09/08 18:33:47;;;;;;;;;;;18.50;99.90;;;17.15;90.11;95354.09;10491648;28;2766;-69
2022/09/08 18:38:51;;;;;;;;;;;18.40;99.90;;;16.94;88.76;95364.06;10510810;28;2542;-69
2022/09/08 18:43:58;;;;;;;;;;;18.10;99.90;;;16.82;91.22;95370.16;10490816;28;2355;-69
2022/09/08 18:49:01;;;;;;;;;;;18.00;99.90;;;16.73;93.12;95372.06;10493488;28;2720;-72
2022/09/08 18:54:04;;;;;;;;;;;17.90;99.90;;;16.57;92.63;95371.75;10476962;28;2371;-71
2022/09/08 18:59:07;;;;;;;;;;;17.00;99.90;;;16.58;92.24;95375.28;10493710;28;2361;-72
2022/09/08 19:04:10;;;;;;;;;;;17.70;99.90;;;16.42;99.09;95374.97;10485195;28;2706;-70
2022/09/08 19:09:13;;;;;;;;;;;17.60;99.90;;;16.30;98.86;95380.25;10468162;28;2694;-67
2022/09/08 19:14:18;;;;;;;;;;;17.40;99.90;;;16.46;100.00;95386.78;10487523;28;2584;-65
2022/09/08 19:19:20;;;;;;;;;;;17.50;99.90;;;16.31;98.36;95379.94;10487341;28;2640;-62
2022/09/08 19:24:25;;;;;;;;;;;17.40;99.90;;;17.34;97.48;95386.28;10471436;28;2651;-72
2022/09/08 19:29:30;;;;;;;;;;;17.40;99.90;;;16.45;98.74;95385.19;10485252;28;2333;-62
2022/09/08 19:34:33;;;;;;;;;;;17.60;99.90;;;16.58;99.42;95376.06;10492989;28;2321;-61
2022/09/08 19:39:36;;;;;;;;;;;17.50;99.90;;;16.97;98.44;95379.69;10490586;28;2698;-62
2022/09/08 19:44:40;;;;;;;;;;;17.70;99.90;;;17.29;96.37;95368.25;10487226;28;2335;-61
2022/09/08 19:49:43;;;;;;;;;;;18.00;99.90;;;17.12;95.07;95383.81;10490628;28;2609;-63
2022/09/08 19:54:46;;;;;;;;;;;18.10;99.90;;;17.00;95.99;95389.94;10492476;28;2763;-62
2022/09/08 19:59:48;;;;;;;;;;;18.00;99.90;;;16.72;97.71;95389.50;10467420;28;2572;-64
2022/09/08 20:04:51;;;;;;;;;;;17.80;99.90;;;16.47;99.27;95391.06;10485906;28;2661;-65
2022/09/08 20:09:54;;;;;;;;;;;17.60;99.90;;;16.33;100.00;95396.66;10499699;28;2781;-64
2022/09/08 20:14:57;;;;;;;;;;;17.40;99.90;;;16.18;100.00;95406.09;10489435;28;2331;-63
2022/09/08 20:20:04;;;;;;;;;;;17.30;99.90;;;16.01;100.00;95400.63;10483811;28;2600;-65
2022/09/08 20:25:08;;;;;;;;;;;17.10;99.90;;;15.95;100.00;95397.28;10485725;28;2350;-64
2022/09/08 20:30:11;;;;;;;;;;;17.00;99.90;;;15.85;100.00;95396.78;10489873;28;2351;-65
2022/09/08 20:35:13;;;;;;;;;;;17.00;99.90;;;15.77;100.00;95400.25;10482178;28;2384;-64
2022/09/08 20:40:16;;;;;;;;;;;16.80;99.90;;;15.71;100.00;95404.22;10487101;28;2280;-64
2022/09/08 20:45:26;;;;;;;;;;;16.80;99.90;;;15.70;100.00;95413.47;10483563;28;2569;-64
2022/09/08 20:50:29;;;;;;;;;;;16.80;99.90;;;15.83;100.00;95412.56;10484609;28;2529;-70
2022/09/08 20:55:32;;;;;;;;;;;16.80;99.90;;;15.80;100.00;95422.13;10484802;28;2335;-67
2022/09/08 21:00:35;;;;;;;;;;;16.70;99.90;;;15.86;100.00;95426.28;10483686;28;2296;-68
2022/09/08 21:05:39;;;;;;;;;;;16.80;99.90;;;15.89;100.00;95424.84;10484435;28;2556;-65
2022/09/08 21:10:42;;;;;;;;;;;16.80;99.90;;;15.95;100.00;95423.56;10481570;28;2617;-63
2022/09/08 21:15:45;;;;;;;;;;;16.90;99.90;;;15.94;100.00;95417.38;10467853;28;2324;-65
2022/09/08 21:20:48;;;;;;;;;;;16.90;99.90;;;16.02;100.00;95426.63;10483224;28;2674;-65
2022/09/08 21:25:51;;;;;;;;;;;16.90;99.90;;;16.06;100.00;95430.31;10483402;28;2690;-64
2022/09/08 21:30:54;;;;;;;;;;;16.90;99.90;;;16.19;100.00;95434.00;10487042;28;2320;-63
2022/09/08 21:35:57;;;;;;;;;;;17.00;99.90;;;16.27;100.00;95429.69;10478838;28;2693;-64
2022/09/08 21:41:00;;;;;;;;;;;17.10;99.90;;;16.21;100.00;95437.97;10478688;28;2590;-64
2022/09/08 21:46:03;;;;;;;;;;;17.10;99.90;;;16.17;100.00;95431.59;10478690;28;2669;-63
2022/09/08 21:51:07;;;;;;;;;;;17.10;99.90;;;16.22;100.00;95427.91;10486820;28;2652;-63
2022/09/08 21:56:10;;;;;;;;;;;17.10;99.90;;;16.25;100.00;95435.44;10480561;28;2296;-64
2022/09/08 22:01:13;;;;;;;;;;;17.10;99.90;;;16.43;100.00;95433.53;10483339;28;2352;-64
2022/09/08 22:06:16;;;;;;;;;;;17.10;99.90;;;16.43;100.00;95436.25;10482239;28;2617;-62
2022/09/08 22:11:22;;;;;;;;;;;17.20;99.90;;;16.45;100.00;95436.72;10486742;28;2645;-64
2022/09/08 22:16:29;;;;;;;;;;;17.20;99.90;;;16.39;100.00;95438.78;10481083;28;2577;-64
2022/09/08 22:21:32;;;;;;;;;;;17.20;99.90;;;16.42;100.00;95435.47;10482027;28;2643;-65
2022/09/08 22:26:35;;;;;;;;;;;17.30;99.90;;;16.40;100.00;95439.59;10483515;28;2657;-64
2022/09/08 22:31:48;;;;;;;;;;;17.30;99.90;;;16.55;100.00;95436.41;10482968;28;2694;-64
2022/09/08 22:36:51;;;;;;;;;;;17.30;99.90;;;16.57;100.00;95431.47;10481481;28;2376;-64
2022/09/08 22:41:54;;;;;;;;;;;17.30;99.90;;;16.61;100.00;95440.56;10479711;28;2638;-63
2022/09/08 22:46:57;;;;;;;;;;;17.40;99.90;;;16.69;100.00;95437.03;10479152;28;2564;-64
2022/09/08 22:52:02;;;;;;;;;;;17.50;99.90;;;16.68;100.00;95443.59;10483161;28;2601;-63
2022/09/08 22:57:05;;;;;;;;;;;17.50;99.90;;;16.66;100.00;95456.66;10484372;28;2573;-64
2022/09/08 23:02:07;;;;;;;;;;;17.50;99.90;;;16.70;100.00;95454.94;10483342;28;2811;-63
2022/09/08 23:07:13;;;;;;;;;;;17.50;99.90;;;16.65;100.00;95446.94;10485311;28;2491;-64
2022/09/08 23:12:16;;;;;;;;;;;17.40;99.90;;;16.57;100.00;95439.59;10490476;28;2350;-64
2022/09/08 23:17:19;;;;;;;;;;;17.50;99.90;;;16.57;100.00;95442.31;10485735;28;2375;-64